createdAt,value
2017-08-11T00:04:15.483Z,10.90
2017-08-11T00:07:14.139Z,10.87
2017-08-11T00:09:42.435Z,9.50
2017-08-11T00:12:10.678Z,9.20
2017-08-11T00:14:38.925Z,9.80
2017-08-11T00:17:07.240Z,10.00
2017-08-11T00:19:35.505Z,9.10
2017-08-11T00:22:03.737Z,9.63
2017-08-11T00:24:32.823Z,9.13
2017-08-11T00:27:01.836Z,8.93
2017-08-11T00:29:30.068Z,9.80
2017-08-11T00:31:58.320Z,10.90
2017-08-11T00:34:26.543Z,8.37
2017-08-11T00:36:55.614Z,9.90
2017-08-11T00:39:23.839Z,8.70
2017-08-11T00:41:52.062Z,10.70
2017-08-11T00:44:20.341Z,9.20
2017-08-11T00:47:14.238Z,9.20
2017-08-11T00:55:44.566Z,11.07
2017-08-11T00:58:12.828Z,9.60
2017-08-11T01:03:40.847Z,8.00
2017-08-11T01:06:09.125Z,8.43
2017-08-11T01:08:38.141Z,11.17
2017-08-11T01:11:06.446Z,8.57
2017-08-11T01:13:34.674Z,8.50
2017-08-11T01:19:03.895Z,8.93
2017-08-11T01:21:32.116Z,8.40
2017-08-11T01:24:00.359Z,10.23
2017-08-11T01:26:28.614Z,11.10
2017-08-11T01:34:57.988Z,10.23
2017-08-11T01:37:26.249Z,10.07
2017-08-11T01:39:54.500Z,10.60
2017-08-11T01:42:22.770Z,11.80
2017-08-11T01:45:14.711Z,9.40
2017-08-11T01:47:43.004Z,9.70
2017-08-11T01:50:11.994Z,9.57
2017-08-11T01:52:40.986Z,7.67
2017-08-11T01:55:10.051Z,9.93
2017-08-11T02:00:38.331Z,12.87
2017-08-11T02:03:06.555Z,11.70
2017-08-11T02:05:35.538Z,8.30
2017-08-11T02:08:04.894Z,14.83
2017-08-11T02:13:33.642Z,12.30
2017-08-11T02:16:02.744Z,11.07
2017-08-11T02:18:31.008Z,9.00
2017-08-11T02:21:00.050Z,10.17
2017-08-11T02:23:28.301Z,10.97
2017-08-11T02:28:56.594Z,8.73
2017-08-11T02:31:24.841Z,9.90
2017-08-11T02:33:53.258Z,9.73
2017-08-11T02:36:21.491Z,9.37
2017-08-11T02:41:50.096Z,9.23
2017-08-11T02:44:18.336Z,14.13
2017-08-11T02:46:46.645Z,7.87
2017-08-11T02:49:14.887Z,10.73
2017-08-11T02:51:43.133Z,9.87
2017-08-11T02:54:11.456Z,7.30
2017-08-11T02:56:39.698Z,11.27
2017-08-11T02:59:07.930Z,9.50
2017-08-11T03:01:37.011Z,10.80
2017-08-11T03:04:05.240Z,10.00
2017-08-11T03:06:33.491Z,10.97
2017-08-11T03:12:02.682Z,9.77
2017-08-11T03:14:30.925Z,9.40
2017-08-11T03:16:59.178Z,6.90
2017-08-11T03:19:27.445Z,7.80
2017-08-11T03:24:56.745Z,12.00
2017-08-11T03:27:25.783Z,11.57
2017-08-11T03:29:54.028Z,12.37
2017-08-11T03:32:22.340Z,13.93
2017-08-11T03:34:50.579Z,9.60
2017-08-11T03:37:18.825Z,11.40
2017-08-11T03:39:47.089Z,10.17
2017-08-11T03:42:15.334Z,9.77
2017-08-11T03:44:43.603Z,10.00
2017-08-11T03:47:11.834Z,7.37
2017-08-11T03:52:41.106Z,8.40
2017-08-11T03:55:09.339Z,9.37
2017-08-11T03:57:37.598Z,9.50
2017-08-11T04:00:05.891Z,7.30
2017-08-11T04:02:34.150Z,8.13
2017-08-11T04:05:16.044Z,7.37
2017-08-11T04:07:44.278Z,10.90
2017-08-11T04:10:12.521Z,11.60
2017-08-11T04:12:40.813Z,8.43
2017-08-11T04:15:09.063Z,10.97
2017-08-11T04:20:38.233Z,7.10
2017-08-11T04:23:06.477Z,8.80
2017-08-11T04:25:34.736Z,10.47
2017-08-11T04:28:02.980Z,8.27
2017-08-11T04:30:32.114Z,8.20
2017-08-11T04:33:15.000Z,7.40
2017-08-11T04:35:44.075Z,10.50
2017-08-11T04:38:12.314Z,9.37
2017-08-11T04:40:40.568Z,14.23
2017-08-11T04:43:08.875Z,12.93
2017-08-11T04:45:37.150Z,12.37
2017-08-11T04:48:05.400Z,9.30
2017-08-11T04:50:33.702Z,10.30
2017-08-11T04:53:01.952Z,9.70
2017-08-11T04:55:30.217Z,7.97
2017-08-11T04:57:58.517Z,9.33
2017-08-11T05:03:27.313Z,8.13
2017-08-11T05:05:55.582Z,8.40
2017-08-11T05:08:23.815Z,8.60
2017-08-11T05:10:52.107Z,9.27
2017-08-11T05:13:20.353Z,16.40
2017-08-11T05:15:48.582Z,16.80
2017-08-11T05:18:17.607Z,8.47
2017-08-11T05:20:46.286Z,14.70
2017-08-11T05:23:14.535Z,14.90
2017-08-11T05:25:42.766Z,14.23
2017-08-11T05:31:10.803Z,16.70
2017-08-11T05:33:39.036Z,18.07
2017-08-11T05:36:07.434Z,13.40
2017-08-11T05:38:36.418Z,10.67
2017-08-11T05:41:18.095Z,12.90
2017-08-11T05:43:46.354Z,11.70
2017-08-11T05:46:14.596Z,14.87
2017-08-11T05:48:42.903Z,14.03
2017-08-11T05:51:11.162Z,17.30
2017-08-11T05:53:39.418Z,10.20
2017-08-11T05:56:16.224Z,12.90
2017-08-11T05:58:44.470Z,19.63
2017-08-11T06:01:12.739Z,13.10
2017-08-11T06:03:41.007Z,21.53
2017-08-11T06:06:10.044Z,12.77
2017-08-11T06:08:38.293Z,15.63
2017-08-11T06:11:06.590Z,9.10
2017-08-11T06:13:34.836Z,12.40
2017-08-11T06:16:03.086Z,11.37
2017-08-11T06:18:32.184Z,12.23
2017-08-11T06:21:01.200Z,10.10
2017-08-11T06:26:29.539Z,17.37
2017-08-11T06:28:57.843Z,9.73
2017-08-11T06:31:26.088Z,12.53
2017-08-11T06:33:54.337Z,14.33
2017-08-11T06:36:22.638Z,15.63
2017-08-11T06:38:50.865Z,12.97
2017-08-11T06:41:19.098Z,10.00
2017-08-11T06:43:47.358Z,9.00
2017-08-11T06:46:15.591Z,11.83
2017-08-11T06:48:44.673Z,9.17
2017-08-11T06:54:14.106Z,8.20
2017-08-11T06:56:43.109Z,11.43
2017-08-11T07:02:12.022Z,12.67
2017-08-11T07:07:40.038Z,15.33
2017-08-11T07:10:08.274Z,10.83
2017-08-11T07:12:37.292Z,15.10
2017-08-11T07:15:05.605Z,12.50
2017-08-11T07:17:33.888Z,14.37
2017-08-11T07:23:02.158Z,14.70
2017-08-11T07:28:31.246Z,18.23
2017-08-11T07:31:16.509Z,16.40
2017-08-11T07:34:14.523Z,11.30
2017-08-11T07:36:43.968Z,12.20
2017-08-11T07:39:16.403Z,11.37
2017-08-11T07:48:14.318Z,11.30
2017-08-11T07:50:42.543Z,9.80
2017-08-11T07:53:16.810Z,12.17
2017-08-11T07:59:16.132Z,67.77
2017-08-11T08:04:44.369Z,91.63
2017-08-11T08:10:14.180Z,28.73
2017-08-11T08:12:43.199Z,50.83
2017-08-11T08:15:37.338Z,47.90
2017-08-11T08:18:18.003Z,38.80
2017-08-11T08:21:14.796Z,46.30
2017-08-11T08:26:54.262Z,25.17
2017-08-11T08:29:22.509Z,20.63
2017-08-11T08:32:16.730Z,18.83
2017-08-11T08:35:14.620Z,20.87
2017-08-11T08:44:04.259Z,12.77
2017-08-11T08:49:32.251Z,15.20
2017-08-11T08:52:00.503Z,17.30
2017-08-11T08:57:28.961Z,11.50
2017-08-11T09:06:17.884Z,11.30
2017-08-11T09:15:10.619Z,15.60
2017-08-11T09:33:06.273Z,14.90
2017-08-11T09:41:36.765Z,10.80
2017-08-11T09:47:18.380Z,12.70
2017-08-11T09:56:15.309Z,15.67
2017-08-11T10:01:48.227Z,13.13
2017-08-11T10:04:16.449Z,9.90
2017-08-11T10:06:44.733Z,11.97
2017-08-11T10:09:13.043Z,11.10
2017-08-11T10:26:50.383Z,15.00
2017-08-11T10:35:19.946Z,12.77
2017-08-11T10:40:48.606Z,10.80
2017-08-11T10:43:16.864Z,16.70
2017-08-11T10:54:46.261Z,10.03
2017-08-11T10:57:17.530Z,9.53
2017-08-11T10:59:45.837Z,12.00
2017-08-11T11:02:14.064Z,12.27
2017-08-11T11:07:43.505Z,10.83
2017-08-11T11:10:11.743Z,11.77
2017-08-11T11:12:39.978Z,9.17
2017-08-11T11:15:09.015Z,12.93
2017-08-11T11:20:38.060Z,12.10
2017-08-11T11:26:07.447Z,13.77
2017-08-11T11:28:35.678Z,11.03
2017-08-11T11:31:04.730Z,15.20
2017-08-11T11:36:34.377Z,15.17
2017-08-11T11:39:02.621Z,13.83
2017-08-11T11:41:30.849Z,10.00
2017-08-11T11:47:00.819Z,14.33
2017-08-11T11:49:29.051Z,10.57
2017-08-11T11:51:58.071Z,9.10
2017-08-11T11:54:26.363Z,13.00
2017-08-11T11:56:54.589Z,8.60
2017-08-11T12:05:14.474Z,11.17
2017-08-11T12:16:44.729Z,10.60
2017-08-11T12:19:12.953Z,10.60
2017-08-11T12:21:41.282Z,9.33
2017-08-11T12:24:09.516Z,10.73
2017-08-11T12:26:38.515Z,9.60
2017-08-11T12:29:07.573Z,12.20
2017-08-11T12:31:35.786Z,9.00
2017-08-11T12:34:04.012Z,11.87
2017-08-11T12:36:32.327Z,8.63
2017-08-11T12:39:01.322Z,9.93
2017-08-11T12:41:30.333Z,7.93
2017-08-11T12:43:58.625Z,11.93
2017-08-11T12:46:26.838Z,10.60
2017-08-11T12:51:55.379Z,8.97
2017-08-11T12:54:23.700Z,9.10
2017-08-11T12:59:53.101Z,9.53
2017-08-11T13:05:22.669Z,8.27
2017-08-11T13:07:50.903Z,8.93
2017-08-11T13:10:19.124Z,8.23
2017-08-11T13:12:47.400Z,11.20
2017-08-11T13:15:15.625Z,9.43
2017-08-11T13:17:43.850Z,8.60
2017-08-11T13:20:12.166Z,8.50
2017-08-11T13:22:40.402Z,7.07
2017-08-11T13:28:08.880Z,8.10
2017-08-11T13:30:37.150Z,8.73
2017-08-11T13:33:05.403Z,9.30
2017-08-11T13:35:33.696Z,10.07
2017-08-11T13:38:01.916Z,9.53
2017-08-11T13:40:30.171Z,9.17
2017-08-11T13:42:58.663Z,10.90
2017-08-11T13:45:27.690Z,10.50
2017-08-11T13:47:55.961Z,9.83
2017-08-11T13:50:24.254Z,9.50
2017-08-11T13:52:52.500Z,8.87
2017-08-11T13:55:21.494Z,10.27
2017-08-11T13:57:50.551Z,7.50
2017-08-11T14:00:18.783Z,9.37
2017-08-11T14:02:47.021Z,8.60
2017-08-11T14:05:16.109Z,8.47
2017-08-11T14:07:44.353Z,10.63
2017-08-11T14:10:12.600Z,9.73
2017-08-11T14:12:40.919Z,11.10
2017-08-11T14:15:09.155Z,10.23
2017-08-11T14:17:37.383Z,10.10
2017-08-11T14:20:05.701Z,8.80
2017-08-11T14:22:33.931Z,10.20
2017-08-11T14:25:02.173Z,7.67
2017-08-11T14:27:30.436Z,10.83
2017-08-11T14:29:58.719Z,13.00
2017-08-11T14:32:26.971Z,9.80
2017-08-11T14:35:15.209Z,10.43
2017-08-11T14:37:43.455Z,8.53
2017-08-11T14:40:11.759Z,8.67
2017-08-11T14:42:40.791Z,8.90
2017-08-11T14:45:09.012Z,8.43
2017-08-11T14:47:38.054Z,7.83
2017-08-11T14:50:06.353Z,9.53
2017-08-11T14:52:34.579Z,8.23
2017-08-11T14:55:16.294Z,8.90
2017-08-11T15:01:14.927Z,10.60
2017-08-11T15:03:43.159Z,8.30
2017-08-11T15:06:11.447Z,8.50
2017-08-11T15:11:40.516Z,10.87
2017-08-11T15:14:16.675Z,7.67
2017-08-11T15:17:15.266Z,6.93
2017-08-11T15:25:51.044Z,7.67
2017-08-11T15:28:19.679Z,7.20
2017-08-11T15:31:15.265Z,8.60
2017-08-11T15:39:40.946Z,8.83
2017-08-11T15:42:16.056Z,9.73
2017-08-11T15:44:45.085Z,10.13
2017-08-11T15:47:13.306Z,7.73
2017-08-11T15:49:41.596Z,7.90
2017-08-11T15:52:10.624Z,8.60
2017-08-11T15:54:39.227Z,7.13
2017-08-11T15:57:07.562Z,9.00
2017-08-11T15:59:35.798Z,12.03
2017-08-11T16:02:04.039Z,9.00
2017-08-11T16:04:32.319Z,9.30
2017-08-11T16:07:00.577Z,7.90
2017-08-11T16:09:28.903Z,7.50
2017-08-11T16:11:57.152Z,10.03
2017-08-11T16:14:25.382Z,7.87
2017-08-11T16:16:54.405Z,12.13
2017-08-11T16:19:22.703Z,11.67
2017-08-11T16:21:50.945Z,11.67
2017-08-11T16:24:19.253Z,10.37
2017-08-11T16:26:47.532Z,10.10
2017-08-11T16:29:17.000Z,8.90
2017-08-11T16:31:45.293Z,9.47
2017-08-11T16:34:13.534Z,10.23
2017-08-11T16:36:42.540Z,13.07
2017-08-11T16:39:16.616Z,13.00
2017-08-11T16:41:44.843Z,9.23
2017-08-11T16:44:13.075Z,12.40
2017-08-11T16:46:41.348Z,29.07
2017-08-11T16:49:09.764Z,10.27
2017-08-11T16:51:38.015Z,8.40
2017-08-11T16:57:07.149Z,10.23
2017-08-11T16:59:35.396Z,41.37
2017-08-11T17:02:04.416Z,42.20
2017-08-11T17:04:32.711Z,24.40
2017-08-11T18:11:58.198Z,11.33
2017-08-11T18:17:33.605Z,8.83
2017-08-11T18:20:03.243Z,13.53
2017-08-11T18:22:32.915Z,8.33
2017-08-11T18:25:12.143Z,13.10
2017-08-11T18:27:41.815Z,8.97
2017-08-11T18:36:00.757Z,12.90
2017-08-11T18:41:25.766Z,13.20
2017-08-11T18:46:50.791Z,11.80
2017-08-11T18:49:43.337Z,14.13
2017-08-11T18:52:33.799Z,14.40
2017-08-11T18:58:14.859Z,11.83
2017-08-11T19:03:39.914Z,15.60
2017-08-11T19:06:32.624Z,15.17
2017-08-11T19:20:40.611Z,14.20
2017-08-11T19:26:04.948Z,14.17
2017-08-11T19:31:29.241Z,13.97
2017-08-11T19:36:54.755Z,7.17
2017-08-11T19:42:33.200Z,7.90
2017-08-11T19:45:25.141Z,12.20
2017-08-11T19:47:54.801Z,11.10
2017-08-11T20:07:58.415Z,17.47
2017-08-11T20:22:06.814Z,12.97
2017-08-11T20:27:32.421Z,11.47
2017-08-11T20:38:47.188Z,13.33
2017-08-11T20:44:11.932Z,10.17
2017-08-11T20:46:41.821Z,14.10
2017-08-11T20:49:11.439Z,8.30
2017-08-11T20:52:00.621Z,14.60
2017-08-11T21:00:19.531Z,14.73
2017-08-11T21:02:49.124Z,14.97
2017-08-11T21:08:13.338Z,7.57
2017-08-11T21:10:42.920Z,9.83
2017-08-11T21:13:12.503Z,7.30
2017-08-11T21:15:42.171Z,12.70
2017-08-11T21:26:55.904Z,13.03
2017-08-11T21:29:25.473Z,7.30
2017-08-11T21:34:49.882Z,17.03
2017-08-11T21:37:19.489Z,20.03
2017-08-11T21:39:49.091Z,7.57
2017-08-11T21:42:18.745Z,14.00
2017-08-11T21:47:44.645Z,7.87
2017-08-11T21:50:33.634Z,8.03
2017-08-11T21:53:03.308Z,21.80
2017-08-11T21:55:32.912Z,14.03
2017-08-11T21:58:02.541Z,22.60
2017-08-11T22:06:22.524Z,18.63
2017-08-11T22:08:52.130Z,30.53
2017-08-11T22:11:21.765Z,20.57
2017-08-11T22:19:41.441Z,10.10
2017-08-11T22:22:11.065Z,12.97
2017-08-11T22:24:40.672Z,19.00
2017-08-11T22:33:00.490Z,8.63
2017-08-11T22:35:30.076Z,7.70
2017-08-11T22:37:59.745Z,15.83
2017-08-11T22:43:24.007Z,12.00
2017-08-11T22:45:53.585Z,12.23
2017-08-11T22:48:23.206Z,10.50
2017-08-11T22:50:52.845Z,13.83
2017-08-11T22:53:22.433Z,18.93
2017-08-11T22:55:52.036Z,8.43
2017-08-11T23:01:16.696Z,14.37
2017-08-11T23:03:46.312Z,20.23
2017-08-11T23:06:15.897Z,10.00
2017-08-11T23:17:29.297Z,11.53
2017-08-11T23:19:58.888Z,12.90
2017-08-11T23:22:35.200Z,6.97
2017-08-11T23:25:04.814Z,8.00
2017-08-11T23:30:30.393Z,11.43
2017-08-11T23:33:00.001Z,12.00
2017-08-11T23:35:29.599Z,9.10
2017-08-11T23:37:59.420Z,10.30
2017-08-11T23:43:24.442Z,12.17
2017-08-11T23:45:54.039Z,9.13
2017-08-11T23:48:23.868Z,13.03
2017-08-11T23:57:03.242Z,8.50
2017-08-11T23:59:32.841Z,8.30
